Time;durP1;ratioP1;P1;durP2;ratioP2;P2;SDS_P1;SDS_P2;PMS_P1;PMS_P2;Temp;Humidity;BMP_temperature;BMP_pressure;BME280_temperature;BME280_humidity;BME280_pressure;Samples;Min_cycle;Max_cycle;Signal;HPM_P1;HPM_P2
2023/09/13 00:00:54;;;;;;;10.53;9.67;;;20.50;99.90;;;;;;5047050;28;20262;-81
2023/09/13 00:03:21;;;;;;;10.47;9.63;;;20.50;99.90;;;;;;5035442;28;20196;-80
2023/09/13 00:05:48;;;;;;;10.17;9.40;;;20.50;99.90;;;;;;5041616;28;20208;-80
2023/09/13 00:08:15;;;;;;;11.17;10.37;;;20.50;99.90;;;;;;5046823;28;20231;-81
2023/09/13 00:10:44;;;;;;;11.07;10.17;;;20.50;99.90;;;;;;5051390;28;20207;-81
2023/09/13 00:13:12;;;;;;;11.30;10.40;;;20.50;99.90;;;;;;5040818;28;20685;-80
2023/09/13 00:15:42;;;;;;;11.47;10.50;;;20.50;99.90;;;;;;5040418;28;20200;-81
2023/09/13 00:18:09;;;;;;;12.00;11.10;;;20.40;99.90;;;;;;5063793;23;20257;-79
2023/09/13 00:20:37;;;;;;;11.20;10.30;;;20.40;99.90;;;;;;5044435;28;20629;-79
2023/09/13 00:23:05;;;;;;;11.93;10.87;;;20.50;99.90;;;;;;5054358;28;20649;-79
2023/09/13 00:25:31;;;;;;;11.93;10.97;;;20.40;99.90;;;;;;5053273;28;20248;-79
2023/09/13 00:28:00;;;;;;;12.23;11.03;;;20.30;99.90;;;;;;5050724;28;20658;-79
2023/09/13 00:30:27;;;;;;;16.17;12.10;;;20.30;99.90;;;;;;5053200;28;20274;-80
2023/09/13 00:32:54;;;;;;;15.27;12.70;;;20.20;99.90;;;;;;5048673;28;20214;-78
2023/09/13 00:35:21;;;;;;;13.77;12.37;;;20.10;99.90;;;;;;5047182;28;20199;-80
2023/09/13 00:37:50;;;;;;;10.87;9.87;;;20.00;99.90;;;;;;5046525;28;20199;-79
2023/09/13 00:40:17;;;;;;;14.10;12.90;;;19.80;99.90;;;;;;5037137;28;20219;-79
2023/09/13 00:42:44;;;;;;;13.67;12.50;;;19.70;99.90;;;;;;5048309;28;20200;-80
2023/09/13 00:45:13;;;;;;;13.53;12.43;;;19.70;99.90;;;;;;5044618;28;20207;-78
2023/09/13 00:47:40;;;;;;;13.90;12.60;;;19.60;99.90;;;;;;5040438;28;20203;-79
2023/09/13 00:50:09;;;;;;;14.93;13.53;;;19.60;99.90;;;;;;5049254;28;20633;-79
2023/09/13 00:52:37;;;;;;;14.40;13.20;;;19.50;99.90;;;;;;5042998;28;20199;-78
2023/09/13 00:55:05;;;;;;;15.27;13.97;;;19.50;99.90;;;;;;5056028;28;20215;-79
2023/09/13 00:57:33;;;;;;;16.50;15.07;;;19.50;99.90;;;;;;5055308;28;20205;-79
2023/09/13 01:00:01;;;;;;;15.57;14.27;;;19.40;99.90;;;;;;5045718;28;20285;-79
2023/09/13 01:02:29;;;;;;;15.20;14.00;;;19.40;99.90;;;;;;5046158;28;20207;-79
2023/09/13 01:04:56;;;;;;;14.33;13.23;;;19.30;99.90;;;;;;5049528;28;20755;-78
2023/09/13 01:07:23;;;;;;;15.90;14.70;;;19.30;99.90;;;;;;5047514;28;20638;-79
2023/09/13 01:09:49;;;;;;;15.90;14.60;;;19.40;99.90;;;;;;5067479;28;20276;-80
2023/09/13 01:12:16;;;;;;;16.10;14.60;;;19.30;99.90;;;;;;5045076;28;20605;-79
2023/09/13 01:14:44;;;;;;;15.33;14.03;;;19.30;99.90;;;;;;5044568;28;20579;-79
2023/09/13 01:17:14;;;;;;;17.80;16.20;;;19.30;99.90;;;;;;5044708;28;20202;-78
2023/09/13 01:19:55;;;;;;;15.87;14.57;;;19.30;99.90;;;;;;5043099;28;20246;-79
2023/09/13 01:23:05;;;;;;;16.77;15.50;;;19.20;99.90;;;;;;5044328;28;20203;-78
2023/09/13 01:25:49;;;;;;;10.27;8.80;;;19.20;99.90;;;;;;5043286;28;20199;-80
2023/09/13 01:28:32;;;;;;;9.30;8.40;;;19.20;99.90;;;;;;5048200;28;20229;-79
2023/09/13 01:30:59;;;;;;;9.40;8.47;;;19.20;99.90;;;;;;5044962;28;20206;-79
2023/09/13 01:33:26;;;;;;;9.37;8.47;;;19.20;99.90;;;;;;5032290;28;20207;-78
2023/09/13 01:35:52;;;;;;;13.13;11.93;;;19.10;99.90;;;;;;5032139;28;20213;-79
2023/09/13 01:38:19;;;;;;;9.57;8.67;;;19.10;99.90;;;;;;5047725;28;20231;-79
2023/09/13 01:40:49;;;;;;;9.90;8.90;;;19.10;99.90;;;;;;5019914;28;20226;-78
2023/09/13 01:43:16;;;;;;;17.83;16.23;;;19.00;99.90;;;;;;5038450;28;20204;-79
2023/09/13 01:45:45;;;;;;;13.07;11.77;;;19.00;99.90;;;;;;5046254;28;20734;-79
2023/09/13 01:48:13;;;;;;;16.33;15.07;;;19.00;99.90;;;;;;5037308;28;20224;-78
2023/09/13 01:50:41;;;;;;;18.23;16.93;;;19.00;99.90;;;;;;5047011;28;20203;-78
2023/09/13 01:53:08;;;;;;;13.60;12.27;;;19.00;99.90;;;;;;5042695;28;20198;-79
2023/09/13 01:55:35;;;;;;;16.13;14.63;;;19.00;99.90;;;;;;5050379;28;20190;-79
2023/09/13 01:58:02;;;;;;;15.50;14.30;;;19.00;99.90;;;;;;5045392;28;20718;-79
2023/09/13 02:00:29;;;;;;;16.80;15.50;;;18.90;99.90;;;;;;5043527;28;20228;-79
2023/09/13 02:02:57;;;;;;;15.87;14.67;;;19.00;99.90;;;;;;5042864;28;20207;-79
2023/09/13 02:05:24;;;;;;;14.00;12.70;;;19.00;99.90;;;;;;5046765;28;20264;-78
2023/09/13 02:07:51;;;;;;;14.27;13.07;;;18.90;99.90;;;;;;5042072;28;20202;-79
2023/09/13 02:10:18;;;;;;;15.53;14.13;;;18.90;99.90;;;;;;5041856;28;20222;-78
2023/09/13 02:12:44;;;;;;;10.73;9.33;;;18.90;99.90;;;;;;5049015;28;20691;-79
2023/09/13 02:15:12;;;;;;;15.17;13.90;;;18.90;99.90;;;;;;5046384;28;20202;-79
2023/09/13 02:17:39;;;;;;;18.47;17.07;;;18.90;99.90;;;;;;5042622;28;20612;-80
2023/09/13 02:20:11;;;;;;;16.07;14.77;;;18.90;99.90;;;;;;5040918;28;20215;-79
2023/09/13 02:22:37;;;;;;;16.60;15.33;;;18.90;99.90;;;;;;5050098;28;20603;-79
2023/09/13 02:25:05;;;;;;;17.07;15.77;;;18.90;99.90;;;;;;5049220;28;20193;-79
2023/09/13 02:27:34;;;;;;;16.97;15.70;;;18.90;99.90;;;;;;5056339;28;20195;-79
2023/09/13 02:30:04;;;;;;;16.27;15.07;;;18.90;99.90;;;;;;5051412;28;20225;-78
2023/09/13 02:32:31;;;;;;;16.60;15.20;;;18.80;99.90;;;;;;5048507;28;20294;-77
2023/09/13 02:34:59;;;;;;;16.13;14.73;;;18.90;99.90;;;;;;5052364;28;20208;-79
2023/09/13 02:37:28;;;;;;;17.90;16.50;;;18.80;99.90;;;;;;5050842;28;20195;-79
2023/09/13 02:39:57;;;;;;;17.23;15.83;;;18.80;99.90;;;;;;5047304;28;20249;-78
2023/09/13 02:42:23;;;;;;;17.33;15.77;;;18.90;99.90;;;;;;5047500;28;20217;-78
2023/09/13 02:44:50;;;;;;;17.37;16.07;;;18.80;99.90;;;;;;5042378;28;20209;-78
2023/09/13 02:47:17;;;;;;;16.57;15.23;;;18.90;99.90;;;;;;5045935;28;20194;-79
2023/09/13 02:49:44;;;;;;;16.63;15.33;;;18.90;99.90;;;;;;5047651;28;20273;-79
2023/09/13 02:52:11;;;;;;;16.60;15.30;;;18.90;99.90;;;;;;5047620;28;20195;-81
2023/09/13 02:54:39;;;;;;;16.70;15.40;;;18.80;99.90;;;;;;5035866;28;20202;-82
2023/09/13 02:57:08;;;;;;;16.17;14.97;;;18.80;99.90;;;;;;5052270;28;20194;-81
2023/09/13 02:59:35;;;;;;;16.47;15.07;;;18.80;99.90;;;;;;5034048;28;20224;-82
2023/09/13 03:02:02;;;;;;;15.47;14.27;;;18.80;99.90;;;;;;5036965;28;20206;-82
2023/09/13 03:04:29;;;;;;;16.07;14.80;;;18.90;99.90;;;;;;5034994;28;20206;-82
2023/09/13 03:06:56;;;;;;;15.07;13.87;;;18.90;99.90;;;;;;5036807;28;20245;-82
2023/09/13 03:09:23;;;;;;;15.23;14.07;;;18.80;99.90;;;;;;5038141;28;20222;-81
2023/09/13 03:11:51;;;;;;;15.40;14.10;;;18.80;99.90;;;;;;5037823;28;20195;-81
2023/09/13 03:14:18;;;;;;;15.00;13.90;;;18.80;99.90;;;;;;5050798;28;20248;-81
2023/09/13 03:16:45;;;;;;;15.17;13.97;;;18.80;99.90;;;;;;5043052;28;20231;-82
2023/09/13 03:19:12;;;;;;;13.73;12.73;;;18.80;99.90;;;;;;5049939;28;20325;-81
2023/09/13 03:21:39;;;;;;;14.50;13.20;;;18.70;99.90;;;;;;5054334;28;20205;-82
2023/09/13 03:24:07;;;;;;;16.23;14.93;;;18.80;99.90;;;;;;5068215;28;20224;-79
2023/09/13 03:26:34;;;;;;;17.53;16.07;;;18.70;99.90;;;;;;5061070;28;20201;-81
2023/09/13 03:29:02;;;;;;;17.03;15.63;;;18.70;99.90;;;;;;5049528;28;20714;-83
2023/09/13 03:31:31;;;;;;;16.47;15.17;;;18.70;99.90;;;;;;5056265;28;20199;-82
2023/09/13 03:34:01;;;;;;;18.10;16.70;;;18.70;99.90;;;;;;5034895;28;20583;-82
2023/09/13 03:36:32;;;;;;;17.17;15.77;;;18.70;99.90;;;;;;5052949;28;20202;-81
2023/09/13 03:39:01;;;;;;;9.40;8.40;;;18.60;99.90;;;;;;5038425;28;20219;-82
2023/09/13 03:41:30;;;;;;;16.97;15.70;;;18.60;99.90;;;;;;5040575;28;20807;-82
2023/09/13 03:43:57;;;;;;;17.10;15.80;;;18.60;99.90;;;;;;5059533;28;20198;-82
2023/09/13 03:46:27;;;;;;;15.77;14.57;;;18.50;99.90;;;;;;5048423;28;20191;-82
2023/09/13 03:48:57;;;;;;;16.53;15.37;;;18.50;99.90;;;;;;5050215;28;20245;-82
2023/09/13 03:51:23;;;;;;;14.70;13.60;;;18.50;99.90;;;;;;5049457;28;20206;-81
2023/09/13 03:53:51;;;;;;;16.27;15.17;;;18.60;99.90;;;;;;5057403;28;20210;-81
2023/09/13 03:56:17;;;;;;;16.07;14.90;;;18.60;99.90;;;;;;5054292;28;20193;-79
2023/09/13 03:58:44;;;;;;;15.40;14.23;;;18.60;99.90;;;;;;5051418;28;20228;-78
2023/09/13 04:01:11;;;;;;;15.53;14.53;;;18.50;99.90;;;;;;5047451;28;20241;-79
2023/09/13 04:03:39;;;;;;;14.60;13.50;;;18.50;99.90;;;;;;5043009;28;20217;-78
2023/09/13 04:06:06;;;;;;;15.17;14.13;;;18.50;99.90;;;;;;5054016;28;20223;-77
2023/09/13 04:08:33;;;;;;;16.40;15.20;;;18.40;99.90;;;;;;5052903;28;20222;-79
2023/09/13 04:11:01;;;;;;;16.47;15.27;;;18.40;99.90;;;;;;5051939;28;20219;-78
2023/09/13 04:13:30;;;;;;;16.30;15.10;;;18.40;99.90;;;;;;5052505;28;20203;-77
2023/09/13 04:16:01;;;;;;;16.47;15.27;;;18.40;99.90;;;;;;5049883;28;20677;-77
2023/09/13 04:18:28;;;;;;;16.07;14.97;;;18.30;99.90;;;;;;5049990;28;20288;-76
2023/09/13 04:20:56;;;;;;;18.20;16.90;;;18.30;99.90;;;;;;5052731;28;20229;-78
2023/09/13 04:23:23;;;;;;;18.07;16.67;;;18.30;99.90;;;;;;5052787;28;20266;-79
2023/09/13 04:25:50;;;;;;;17.70;16.30;;;18.20;99.90;;;;;;5059199;28;20638;-79
2023/09/13 04:28:18;;;;;;;17.50;16.20;;;18.20;99.90;;;;;;5055544;28;20213;-78
2023/09/13 04:30:44;;;;;;;17.17;15.87;;;18.10;99.90;;;;;;5053551;28;20253;-79
2023/09/13 04:33:12;;;;;;;17.33;16.07;;;18.10;99.90;;;;;;5052108;28;20685;-77
2023/09/13 04:35:38;;;;;;;17.30;16.07;;;18.10;99.90;;;;;;5051632;28;20676;-78
2023/09/13 04:38:07;;;;;;;16.83;15.63;;;18.00;99.90;;;;;;5055584;28;20285;-78
2023/09/13 04:40:34;;;;;;;16.67;15.50;;;18.00;99.90;;;;;;5051467;28;20704;-78
2023/09/13 04:43:23;;;;;;;18.70;17.20;;;18.00;99.90;;;;;;5042025;28;20196;-78
2023/09/13 04:45:51;;;;;;;18.47;17.07;;;17.90;99.90;;;;;;5055520;28;20219;-79
2023/09/13 04:48:18;;;;;;;18.70;17.20;;;17.80;99.90;;;;;;5053640;28;20328;-78
2023/09/13 04:50:45;;;;;;;18.07;16.77;;;17.80;99.90;;;;;;5051729;28;20204;-79
2023/09/13 04:53:13;;;;;;;18.13;16.80;;;17.70;99.90;;;;;;5052143;28;20646;-79
2023/09/13 04:55:44;;;;;;;19.10;17.63;;;17.80;99.90;;;;;;5055824;28;20274;-79
2023/09/13 04:58:12;;;;;;;19.77;18.27;;;17.80;99.90;;;;;;5054865;28;20250;-79
2023/09/13 05:00:39;;;;;;;18.80;17.40;;;17.70;99.90;;;;;;5052776;28;20216;-79
2023/09/13 05:03:05;;;;;;;19.03;17.60;;;17.70;99.90;;;;;;5055934;28;20199;-78
2023/09/13 05:05:32;;;;;;;21.20;19.50;;;17.70;99.90;;;;;;5056066;28;20201;-79
2023/09/13 05:07:59;;;;;;;18.77;17.37;;;17.70;99.90;;;;;;5052254;28;20216;-79
2023/09/13 05:10:30;;;;;;;19.40;18.00;;;17.80;99.90;;;;;;5056158;28;20188;-79
2023/09/13 05:12:57;;;;;;;18.97;17.57;;;17.80;99.90;;;;;;5053588;28;20266;-78
2023/09/13 05:15:24;;;;;;;20.40;18.80;;;17.80;99.90;;;;;;5052229;28;20662;-79
2023/09/13 05:17:51;;;;;;;20.60;19.07;;;17.80;99.90;;;;;;5050612;28;20267;-79
2023/09/13 05:20:18;;;;;;;19.83;18.33;;;17.80;99.90;;;;;;5058889;28;20660;-79
2023/09/13 05:22:46;;;;;;;19.40;17.80;;;17.80;99.90;;;;;;5053351;28;20201;-79
2023/09/13 05:25:12;;;;;;;19.97;18.47;;;17.90;99.90;;;;;;5056917;28;20196;-79
2023/09/13 05:27:41;;;;;;;19.03;17.63;;;18.00;99.90;;;;;;5054595;28;20199;-79
2023/09/13 05:30:09;;;;;;;18.97;17.60;;;18.00;99.90;;;;;;5064038;28;20606;-79
2023/09/13 05:32:36;;;;;;;19.33;17.97;;;18.10;99.90;;;;;;5061300;28;20203;-79
2023/09/13 05:35:02;;;;;;;18.90;17.50;;;18.20;99.90;;;;;;5038368;28;20198;-79
2023/09/13 05:37:29;;;;;;;19.53;18.17;;;18.30;99.90;;;;;;5049003;28;20747;-78
2023/09/13 05:39:56;;;;;;;18.50;17.30;;;18.30;99.90;;;;;;5046337;28;20236;-79
2023/09/13 05:42:23;;;;;;;20.20;18.67;;;18.30;99.90;;;;;;5045828;28;20244;-78
2023/09/13 05:44:51;;;;;;;15.27;14.00;;;18.40;99.90;;;;;;5053374;28;20260;-79
2023/09/13 05:47:18;;;;;;;14.30;13.10;;;18.40;99.90;;;;;;5057855;28;20198;-79
2023/09/13 05:49:45;;;;;;;18.17;16.87;;;18.40;99.90;;;;;;5055467;28;20225;-79
2023/09/13 05:52:11;;;;;;;17.87;16.63;;;18.40;99.90;;;;;;5052455;28;20194;-78
2023/09/13 05:54:38;;;;;;;17.10;15.80;;;18.40;99.90;;;;;;5050997;28;20209;-78
2023/09/13 05:57:05;;;;;;;16.40;15.30;;;18.50;99.90;;;;;;5050291;28;20760;-79
2023/09/13 05:59:35;;;;;;;16.33;15.10;;;18.50;99.90;;;;;;5051072;28;20279;-79
2023/09/13 06:02:03;;;;;;;17.03;15.83;;;18.60;99.90;;;;;;5053697;28;20740;-79
2023/09/13 06:04:30;;;;;;;16.40;15.23;;;18.70;99.90;;;;;;5054299;28;20207;-79
2023/09/13 06:06:58;;;;;;;18.10;16.67;;;18.80;99.90;;;;;;5055946;28;20278;-79
2023/09/13 06:09:24;;;;;;;16.40;15.10;;;18.80;99.90;;;;;;5044657;28;20219;-82
2023/09/13 06:11:51;;;;;;;15.73;14.63;;;18.90;99.90;;;;;;5050096;28;20734;-82
2023/09/13 06:14:19;;;;;;;16.33;15.27;;;18.90;99.90;;;;;;5048576;28;20213;-82
2023/09/13 06:16:46;;;;;;;8.57;7.77;;;18.90;99.90;;;;;;5047154;28;20229;-81
2023/09/13 06:19:14;;;;;;;8.43;7.53;;;19.00;99.90;;;;;;5044388;28;20233;-82
2023/09/13 06:21:40;;;;;;;8.80;7.90;;;19.00;99.90;;;;;;5051868;28;20237;-79
2023/09/13 06:24:07;;;;;;;13.37;12.37;;;19.00;99.90;;;;;;5054246;28;20693;-78
2023/09/13 06:26:34;;;;;;;8.90;8.07;;;19.10;99.90;;;;;;5052193;28;20194;-79
2023/09/13 06:29:01;;;;;;;8.10;7.07;;;19.20;99.90;;;;;;5050751;28;20338;-79
2023/09/13 06:31:28;;;;;;;8.43;7.63;;;19.20;99.90;;;;;;5050581;28;20187;-79
2023/09/13 06:33:55;;;;;;;8.53;7.63;;;19.20;99.90;;;;;;5055978;28;20233;-80
2023/09/13 06:36:23;;;;;;;8.73;7.93;;;19.20;99.90;;;;;;5049622;28;20202;-79
2023/09/13 06:38:50;;;;;;;8.43;7.63;;;19.30;99.90;;;;;;5046487;28;20267;-80
2023/09/13 06:41:17;;;;;;;8.17;7.37;;;19.30;99.90;;;;;;5054136;28;20218;-79
2023/09/13 06:43:44;;;;;;;8.57;7.77;;;19.30;99.90;;;;;;5054210;28;20199;-79
2023/09/13 06:46:11;;;;;;;17.00;15.70;;;19.40;99.90;;;;;;5049109;28;20206;-79
2023/09/13 06:48:38;;;;;;;16.57;15.43;;;19.50;99.90;;;;;;5048118;28;20230;-79
2023/09/13 06:51:05;;;;;;;14.53;13.40;;;19.50;99.90;;;;;;5052906;28;20195;-82
2023/09/13 06:53:33;;;;;;;14.67;13.67;;;19.70;99.90;;;;;;5046371;28;20192;-82
2023/09/13 06:56:00;;;;;;;10.10;9.20;;;19.70;99.90;;;;;;5048043;28;20257;-79
2023/09/13 06:58:26;;;;;;;7.60;6.90;;;19.90;99.90;;;;;;5045604;28;20215;-79
2023/09/13 07:00:53;;;;;;;7.80;7.10;;;20.00;99.90;;;;;;5045978;28;20220;-79
2023/09/13 07:03:20;;;;;;;8.60;7.73;;;20.10;99.90;;;;;;5040455;28;20196;-80
2023/09/13 07:05:47;;;;;;;14.30;13.20;;;20.20;99.90;;;;;;5040970;28;20580;-79
2023/09/13 07:08:13;;;;;;;14.17;12.90;;;20.20;99.90;;;;;;5040316;28;20223;-80
2023/09/13 07:10:42;;;;;;;8.43;7.63;;;20.20;99.90;;;;;;5043253;28;20250;-80
2023/09/13 07:13:08;;;;;;;12.20;11.03;;;20.20;99.90;;;;;;5043639;28;20227;-80
2023/09/13 07:15:35;;;;;;;14.70;13.60;;;20.20;99.90;;;;;;5047074;28;20580;-79
2023/09/13 07:18:02;;;;;;;15.43;14.23;;;20.20;99.90;;;;;;5050839;28;20223;-80
2023/09/13 07:20:29;;;;;;;14.53;13.43;;;20.20;99.90;;;;;;5057516;28;20647;-79
2023/09/13 07:22:56;;;;;;;9.57;8.67;;;20.20;99.90;;;;;;5053807;28;20200;-80
2023/09/13 07:25:23;;;;;;;8.57;7.67;;;20.20;99.90;;;;;;5054648;28;20195;-79
2023/09/13 07:27:51;;;;;;;8.63;7.83;;;20.30;99.90;;;;;;5046131;28;20195;-80
2023/09/13 07:30:19;;;;;;;8.87;7.97;;;20.30;99.90;;;;;;5057265;28;20199;-79
2023/09/13 07:32:49;;;;;;;10.93;10.03;;;20.30;99.90;;;;;;5056593;28;20571;-80
2023/09/13 07:35:15;;;;;;;12.10;11.00;;;20.30;99.90;;;;;;5053184;28;20187;-79
2023/09/13 07:37:42;;;;;;;9.03;7.80;;;20.30;99.90;;;;;;5055034;28;20214;-80
2023/09/13 07:40:11;;;;;;;11.60;7.73;;;20.20;99.90;;;;;;5046184;28;20337;-79
2023/09/13 07:42:38;;;;;;;7.90;7.10;;;20.30;99.90;;;;;;5043419;28;20277;-79
2023/09/13 07:45:08;;;;;;;8.83;7.93;;;20.40;99.90;;;;;;5044337;28;20200;-80
2023/09/13 07:47:34;;;;;;;10.67;7.77;;;20.60;99.90;;;;;;5054492;28;20245;-80
2023/09/13 07:50:02;;;;;;;9.37;8.10;;;20.60;99.90;;;;;;5052883;28;20226;-79
2023/09/13 07:52:28;;;;;;;8.17;7.37;;;20.70;99.90;;;;;;5055995;28;20204;-79
2023/09/13 07:54:55;;;;;;;9.70;8.80;;;20.90;99.90;;;;;;5054398;28;20661;-78
2023/09/13 07:57:22;;;;;;;9.23;7.83;;;21.10;99.90;;;;;;5053139;28;20211;-79
2023/09/13 07:59:49;;;;;;;8.87;8.07;;;21.60;99.90;;;;;;5052019;28;20269;-80
2023/09/13 08:02:17;;;;;;;12.67;11.57;;;22.00;99.90;;;;;;5049085;28;20250;-81
2023/09/13 08:04:44;;;;;;;12.33;11.33;;;22.30;99.90;;;;;;5049039;28;20206;-82
2023/09/13 08:07:11;;;;;;;13.50;12.50;;;22.50;99.90;;;;;;5048949;28;20260;-78
2023/09/13 08:09:38;;;;;;;13.00;11.90;;;22.50;99.90;;;;;;5053142;28;20573;-79
2023/09/13 08:12:05;;;;;;;8.53;7.73;;;22.40;99.90;;;;;;5052441;28;20222;-79
2023/09/13 08:14:34;;;;;;;10.47;9.67;;;22.30;99.90;;;;;;5046979;28;20206;-80
2023/09/13 08:17:00;;;;;;;11.37;10.47;;;22.10;99.90;;;;;;5047409;28;20261;-80
2023/09/13 08:19:29;;;;;;;12.40;11.50;;;22.00;99.90;;;;;;5048762;28;20230;-79
2023/09/13 08:21:55;;;;;;;12.87;11.93;;;21.90;99.90;;;;;;5048917;28;20208;-79
2023/09/13 08:24:22;;;;;;;12.00;11.10;;;21.80;99.90;;;;;;5033400;28;20191;-80
2023/09/13 08:26:49;;;;;;;10.87;10.07;;;21.90;99.90;;;;;;5047412;28;20203;-80
2023/09/13 08:29:16;;;;;;;10.40;9.60;;;22.00;99.90;;;;;;5051729;28;20220;-81
2023/09/13 08:31:45;;;;;;;11.90;10.90;;;22.00;99.90;;;;;;5046746;28;20195;-82
2023/09/13 08:34:12;;;;;;;11.97;11.07;;;22.10;99.90;;;;;;5053045;28;20202;-80
2023/09/13 08:36:40;;;;;;;12.63;11.73;;;22.10;99.90;;;;;;5042525;28;20257;-80
2023/09/13 08:39:07;;;;;;;13.00;12.00;;;22.10;99.90;;;;;;5051348;28;20215;-80
2023/09/13 08:41:34;;;;;;;12.07;11.17;;;22.20;99.90;;;;;;5045870;28;20246;-80
2023/09/13 08:44:04;;;;;;;12.43;11.43;;;22.20;99.90;;;;;;5050098;28;20197;-80
2023/09/13 08:46:32;;;;;;;9.10;8.33;;;22.20;99.90;;;;;;5044904;28;20199;-80
2023/09/13 08:49:01;;;;;;;11.60;10.63;;;22.30;99.90;;;;;;5047433;28;20219;-80
2023/09/13 08:51:29;;;;;;;11.83;10.83;;;22.40;99.90;;;;;;5030279;28;20241;-80
2023/09/13 08:53:57;;;;;;;12.10;11.20;;;22.40;99.90;;;;;;5044941;28;20195;-80
2023/09/13 08:56:24;;;;;;;11.57;10.57;;;22.20;99.90;;;;;;5044517;28;20219;-80
2023/09/13 08:58:52;;;;;;;11.73;10.77;;;22.00;99.90;;;;;;5049847;28;20700;-80
2023/09/13 09:01:21;;;;;;;11.33;10.33;;;21.90;99.90;;;;;;5042640;28;20312;-80
2023/09/13 09:03:49;;;;;;;11.80;10.90;;;21.80;99.90;;;;;;5030514;28;20203;-83
2023/09/13 09:06:17;;;;;;;6.83;6.13;;;21.60;99.90;;;;;;5041162;28;20218;-83
2023/09/13 09:08:46;;;;;;;7.53;6.60;;;21.60;99.90;;;;;;5058601;28;20642;-80
2023/09/13 09:11:15;;;;;;;7.03;5.97;;;21.50;99.90;;;;;;5051900;28;20203;-80
2023/09/13 09:13:43;;;;;;;7.20;6.50;;;21.50;99.90;;;;;;5046465;28;20203;-80
2023/09/13 09:16:11;;;;;;;7.40;6.40;;;21.40;99.90;;;;;;5047616;28;20199;-80
2023/09/13 09:18:40;;;;;;;11.43;10.50;;;21.40;99.90;;;;;;5038044;28;20230;-79
2023/09/13 09:21:07;;;;;;;10.50;9.60;;;21.40;99.90;;;;;;5045816;28;20199;-81
2023/09/13 09:23:37;;;;;;;10.83;9.93;;;21.40;99.90;;;;;;5060781;28;20620;-80
2023/09/13 09:26:04;;;;;;;9.20;8.50;;;21.50;99.90;;;;;;5044184;28;20284;-80
2023/09/13 09:28:34;;;;;;;9.17;8.37;;;21.50;99.90;;;;;;5051186;28;20230;-80
2023/09/13 09:31:02;;;;;;;9.23;8.43;;;21.60;99.90;;;;;;5048891;28;20697;-79
2023/09/13 09:33:30;;;;;;;9.60;8.63;;;21.50;99.90;;;;;;5024430;28;20196;-79
2023/09/13 09:35:59;;;;;;;8.53;7.73;;;21.50;99.90;;;;;;5024002;28;20200;-80
2023/09/13 09:38:28;;;;;;;9.10;8.30;;;21.50;99.90;;;;;;5031985;28;20220;-80
2023/09/13 09:40:58;;;;;;;9.17;8.37;;;21.50;99.90;;;;;;5024137;28;20227;-80
2023/09/13 09:43:25;;;;;;;8.80;8.00;;;21.70;99.90;;;;;;5034339;28;20466;-79
2023/09/13 09:45:54;;;;;;;9.17;8.40;;;21.80;99.90;;;;;;5048911;28;20577;-80
2023/09/13 09:48:21;;;;;;;10.03;9.13;;;21.90;99.90;;;;;;5050310;28;20215;-80
2023/09/13 09:50:50;;;;;;;7.93;6.13;;;22.00;99.90;;;;;;5047443;28;20202;-81
2023/09/13 09:53:18;;;;;;;6.90;6.20;;;22.10;99.90;;;;;;5036152;28;20631;-80
2023/09/13 09:55:45;;;;;;;7.00;6.30;;;22.20;99.90;;;;;;5043591;28;20286;-80
2023/09/13 09:58:13;;;;;;;8.93;7.83;;;22.30;99.90;;;;;;5048263;28;20721;-80
2023/09/13 10:00:47;;;;;;;8.50;7.80;;;22.30;99.90;;;;;;5057770;28;20222;-81
2023/09/13 10:03:18;;;;;;;9.47;8.63;;;22.30;99.90;;;;;;5039352;28;20673;-80
2023/09/13 10:05:56;;;;;;;10.17;9.30;;;22.40;99.90;;;;;;5048106;28;20262;-80
2023/09/13 10:08:40;;;;;;;7.57;6.93;;;22.50;99.90;;;;;;5046626;28;20219;-80
2023/09/13 10:11:07;;;;;;;7.43;6.67;;;22.50;99.90;;;;;;5047440;28;20195;-79
2023/09/13 10:13:35;;;;;;;8.37;7.27;;;22.40;99.90;;;;;;5048701;28;20218;-81
2023/09/13 10:16:02;;;;;;;6.20;5.40;;;22.40;99.90;;;;;;5047545;28;20254;-80
2023/09/13 10:18:32;;;;;;;5.80;4.10;;;22.40;99.90;;;;;;5036892;28;20720;-80
2023/09/13 10:21:00;;;;;;;4.30;3.90;;;22.50;99.90;;;;;;5044019;28;20206;-79
2023/09/13 10:23:33;;;;;;;4.03;3.73;;;22.40;99.90;;;;;;5031161;28;20215;-79
2023/09/13 10:26:03;;;;;;;6.43;5.93;;;22.30;99.90;;;;;;5040878;28;20203;-80
2023/09/13 10:28:35;;;;;;;7.90;7.40;;;22.30;99.90;;;;;;5046295;28;20226;-81
2023/09/13 10:31:03;;;;;;;6.23;5.73;;;22.30;99.90;;;;;;5038412;28;20262;-80
2023/09/13 10:33:33;;;;;;;7.13;6.60;;;22.20;99.90;;;;;;5047210;28;20202;-80
2023/09/13 10:36:03;;;;;;;7.47;6.97;;;22.30;99.90;;;;;;5046614;28;20230;-80
2023/09/13 10:38:37;;;;;;;7.40;6.90;;;22.30;99.90;;;;;;5044174;28;20222;-81
2023/09/13 10:41:08;;;;;;;7.17;6.70;;;22.30;99.90;;;;;;5045063;28;20528;-81
2023/09/13 10:43:37;;;;;;;8.47;7.77;;;22.30;99.90;;;;;;5045056;28;20308;-80
2023/09/13 10:46:05;;;;;;;7.93;7.33;;;22.20;99.90;;;;;;5043067;28;20219;-80
2023/09/13 10:48:35;;;;;;;8.40;7.80;;;22.10;99.90;;;;;;5038276;28;20222;-80
2023/09/13 10:51:03;;;;;;;7.87;7.30;;;22.10;99.90;;;;;;5050039;28;20200;-81
2023/09/13 10:53:30;;;;;;;7.87;7.27;;;22.10;99.90;;;;;;5037289;28;20204;-80
2023/09/13 10:55:57;;;;;;;8.03;7.43;;;22.20;99.90;;;;;;5053950;28;20191;-80
2023/09/13 10:58:25;;;;;;;7.53;6.80;;;22.10;99.90;;;;;;5054293;28;20274;-80
2023/09/13 11:00:54;;;;;;;7.73;7.13;;;21.90;99.90;;;;;;5061898;28;20210;-79
2023/09/13 11:03:22;;;;;;;8.97;7.37;;;21.70;99.90;;;;;;5043894;28;20215;-80
2023/09/13 11:05:52;;;;;;;8.03;7.33;;;21.40;99.90;;;;;;5041813;28;20214;-80
2023/09/13 11:08:28;;;;;;;3.83;3.53;;;21.10;99.90;;;;;;5037075;28;20716;-81
2023/09/13 11:10:56;;;;;;;7.17;6.67;;;21.00;99.90;;;;;;5038118;28;20424;-81
2023/09/13 11:13:31;;;;;;;4.00;3.50;;;20.80;99.90;;;;;;5048768;28;20192;-80
2023/09/13 11:16:03;;;;;;;4.23;3.83;;;20.80;99.90;;;;;;5052281;28;20207;-80
2023/09/13 11:18:31;;;;;;;4.13;3.73;;;20.80;99.90;;;;;;5046822;28;20435;-80
2023/09/13 11:20:59;;;;;;;3.90;3.50;;;20.70;99.90;;;;;;5044169;28;20610;-79
2023/09/13 11:23:26;;;;;;;5.13;4.73;;;20.80;99.90;;;;;;5035096;28;20227;-79
2023/09/13 11:25:54;;;;;;;7.50;6.90;;;20.90;99.90;;;;;;5052038;28;20249;-78
2023/09/13 11:28:32;;;;;;;8.30;7.50;;;20.90;99.90;;;;;;5056676;28;20215;-79
2023/09/13 11:31:01;;;;;;;9.23;8.00;;;21.00;99.90;;;;;;5049636;28;20206;-78
2023/09/13 11:33:29;;;;;;;8.50;7.73;;;21.10;99.90;;;;;;5050627;28;20230;-78
2023/09/13 11:35:57;;;;;;;9.30;8.40;;;21.30;99.90;;;;;;5063620;28;20203;-79
2023/09/13 11:38:26;;;;;;;8.50;7.70;;;21.50;99.90;;;;;;5061852;28;20731;-78
2023/09/13 11:40:56;;;;;;;6.57;4.63;;;21.70;99.90;;;;;;5053366;28;20303;-79
2023/09/13 11:43:24;;;;;;;4.93;3.73;;;21.70;99.90;;;;;;5053691;28;20666;-79
2023/09/13 11:45:52;;;;;;;4.57;3.87;;;21.70;99.90;;;;;;5051887;28;20253;-77
2023/09/13 11:48:29;;;;;;;5.93;5.47;;;21.90;99.90;;;;;;5027993;28;20226;-77
2023/09/13 11:50:56;;;;;;;3.80;3.50;;;21.90;99.90;;;;;;5047088;28;20265;-76
2023/09/13 11:53:28;;;;;;;3.93;3.63;;;22.00;99.90;;;;;;5041530;28;20203;-77
2023/09/13 11:55:57;;;;;;;5.63;5.13;;;22.10;99.90;;;;;;5050480;28;20601;-77
2023/09/13 11:58:34;;;;;;;3.53;3.27;;;22.20;99.90;;;;;;5049479;28;20220;-77
2023/09/13 12:01:03;;;;;;;3.83;3.43;;;22.40;99.90;;;;;;5049414;28;20253;-77
2023/09/13 12:03:30;;;;;;;6.87;4.23;;;22.60;99.90;;;;;;5052015;28;20302;-77
2023/09/13 12:05:57;;;;;;;7.10;6.40;;;22.60;99.90;;;;;;5046662;28;20234;-77
2023/09/13 12:08:28;;;;;;;6.67;6.07;;;22.60;99.90;;;;;;5043478;28;20274;-77
2023/09/13 12:10:56;;;;;;;4.43;4.03;;;22.70;99.90;;;;;;5049822;28;20200;-78
2023/09/13 12:13:41;;;;;;;3.83;3.53;;;22.90;99.90;;;;;;5048542;28;20206;-78
2023/09/13 12:16:08;;;;;;;5.23;3.97;;;23.00;99.90;;;;;;5048080;28;20199;-77
2023/09/13 12:18:37;;;;;;;4.60;3.60;;;22.90;99.90;;;;;;5047375;28;20274;-76
2023/09/13 12:21:06;;;;;;;5.00;3.87;;;23.00;99.90;;;;;;5047723;28;20203;-76
2023/09/13 12:23:36;;;;;;;5.10;4.40;;;22.90;99.90;;;;;;5048973;28;20243;-77
2023/09/13 12:26:05;;;;;;;5.20;4.70;;;22.70;99.90;;;;;;5052394;28;20326;-77
2023/09/13 12:28:35;;;;;;;5.67;5.17;;;22.80;99.90;;;;;;5053444;28;20215;-80
2023/09/13 12:31:05;;;;;;;5.00;4.50;;;22.70;99.90;;;;;;5049315;28;20219;-80
2023/09/13 12:33:32;;;;;;;5.80;5.20;;;22.60;99.90;;;;;;5031626;28;20291;-80
2023/09/13 12:36:00;;;;;;;6.77;6.00;;;22.50;99.90;;;;;;5055254;28;20210;-80
2023/09/13 12:38:32;;;;;;;6.97;6.37;;;22.40;99.90;;;;;;5023610;28;20224;-80
2023/09/13 12:41:00;;;;;;;6.47;5.97;;;22.50;99.90;;;;;;5039775;28;20681;-80